LiveATC.Net - Listen to live air traffic control over the Internet! Contact for advertising information

ICAO: KFXE  IATA: FXE   Airport: Fort Lauderdale Executive Airport
City: Fort Lauderdale   State/Province: Florida
Country: United States   Continent: North America
KFXE METAR Weather: KFXE 041153Z 25006KT BKN095 23/20 A2972 RMK AO2 SLP067 T02280200 10239 20206 53013
KFXE Flight Activity (FlightAware)
KFXE Airport Info   (AirNav) (iFlightPlanner)
KFXE VFR Sectional Chart   (iFlightPlanner) 
KFXE IFR Low Chart   (iFlightPlanner) 
KFXE Tower
Feed Status: UP   Listeners: 2
Listen right in your browser - requires Flash (in browser, requires Flash)
Click here to listen with your own player (launches your MP3 player)
KFXE Tower Audio Archives
Ft. Lauderdale Exec Tower120.900


Unauthorized use prohibited. See Terms of Service

Find LiveATC Audio Streams

Airport/ARTCC Code

(e.g., 124.400, 128.75)
Site-wide search

Browse LiveATC Feeds
LiveATC Coverage Map
Top 50 LiveATC Feeds
Bad Weather Areas

Offer a LiveATC Feed
Press Inquiries

LiveATC on iPhone
LiveATC on Android

LiveATC Mobile
(Mobile browser)

ATC Audio Archives
Interesting Recordings

LiveATC Forums

Home Page
Make a Donation
LiveATC Bookstore

Terms of Use
Privacy Policy

ATC/Radar Sites
U.S. ARTCC Freqs
Canadian Air Freqs


FAA Airport Status
Nat'l Airspace Status
Arrival Demand Charts

Server Software By:

Please make a donation to help us keep growing!